createdAt,value
2017-11-03T00:00:10.718Z,92.19
2017-11-03T00:00:38.855Z,92.58
2017-11-03T00:01:07.007Z,92.86
2017-11-03T00:01:35.094Z,92.77
2017-11-03T00:02:03.148Z,92.72
2017-11-03T00:02:31.196Z,92.29
2017-11-03T00:02:59.331Z,92.77
2017-11-03T00:03:27.369Z,92.82
2017-11-03T00:03:55.424Z,92.82
2017-11-03T00:04:23.327Z,92.82
2017-11-03T00:04:51.488Z,92.91
2017-11-03T00:05:20.485Z,93.49
2017-11-03T00:05:48.670Z,92.72
2017-11-03T00:06:16.616Z,92.91
2017-11-03T00:06:44.568Z,93.01
2017-11-03T00:07:12.735Z,93.01
2017-11-03T00:07:40.576Z,92.72
2017-11-03T00:08:08.728Z,92.82
2017-11-03T00:08:36.681Z,92.72
2017-11-03T00:09:04.772Z,92.72
2017-11-03T00:09:32.818Z,92.63
2017-11-03T00:10:00.590Z,92.72
2017-11-03T00:10:28.615Z,92.82
2017-11-03T00:10:56.570Z,93.39
2017-11-03T00:11:24.612Z,93.3
2017-11-03T00:11:52.533Z,93.3
2017-11-03T00:12:20.507Z,92.82
2017-11-03T00:12:48.656Z,92.72
2017-11-03T00:13:16.599Z,93.1
2017-11-03T00:13:44.644Z,93.87
2017-11-03T00:14:12.623Z,94.26
2017-11-03T00:14:40.771Z,94.54
2017-11-03T00:15:08.706Z,94.07
2017-11-03T00:15:36.743Z,94.74
2017-11-03T00:16:04.688Z,95.21
2017-11-03T00:16:32.744Z,94.64
2017-11-03T00:17:00.794Z,95.12
2017-11-03T00:17:28.836Z,95.03
2017-11-03T00:17:56.690Z,94.83
2017-11-03T00:18:24.704Z,94.98
2017-11-03T00:18:52.862Z,94.83
2017-11-03T00:19:20.702Z,95.41
2017-11-03T00:19:48.731Z,95.31
2017-11-03T00:20:16.851Z,95.36
2017-11-03T00:20:44.989Z,95.89
2017-11-03T00:21:13.165Z,95.94
2017-11-03T00:21:41.240Z,96.03
2017-11-03T00:22:09.389Z,96.42
2017-11-03T00:22:37.521Z,96.03
2017-11-03T00:23:05.613Z,96.7
2017-11-03T00:23:33.962Z,96.89
2017-11-03T00:24:01.990Z,96.8
2017-11-03T00:24:30.154Z,96.51
2017-11-03T00:24:58.192Z,96.8
2017-11-03T00:25:26.333Z,97.09
2017-11-03T00:25:54.452Z,97.28
2017-11-03T00:26:22.294Z,96.89
2017-11-03T00:26:50.374Z,96.61
2017-11-03T00:27:18.515Z,96.7
2017-11-03T00:27:46.670Z,97.09
2017-11-03T00:28:14.624Z,97.28
2017-11-03T00:28:42.796Z,96.89
2017-11-03T00:29:10.977Z,96.99
2017-11-03T00:29:39.198Z,97.09
2017-11-03T00:30:07.352Z,96.99
2017-11-03T00:30:35.341Z,97.09
2017-11-03T00:31:03.407Z,97.09
2017-11-03T00:31:31.480Z,96.8
2017-11-03T00:31:59.418Z,96.99
2017-11-03T00:32:27.269Z,97.38
2017-11-03T00:32:55.430Z,97.09
2017-11-03T00:33:23.478Z,96.7
2017-11-03T00:33:51.639Z,96.89
2017-11-03T00:34:19.582Z,96.89
2017-11-03T00:34:47.567Z,96.7
2017-11-03T00:35:16.148Z,96.61
2017-11-03T00:35:44.827Z,96.75
2017-11-03T00:36:13.139Z,96.32
2017-11-03T00:36:41.249Z,96.66
2017-11-03T00:37:09.276Z,97.04
2017-11-03T00:37:37.427Z,97.14
2017-11-03T00:38:05.633Z,96.94
2017-11-03T00:38:33.538Z,96.99
2017-11-03T00:39:01.478Z,96.99
2017-11-03T00:39:29.510Z,96.99
2017-11-03T00:39:57.568Z,97.24
2017-11-03T00:40:25.599Z,96.99
2017-11-03T00:40:53.633Z,97.76
2017-11-03T00:41:21.899Z,97.47
2017-11-03T00:41:50.110Z,97.38
2017-11-03T00:42:18.240Z,97.76
2017-11-03T00:42:46.809Z,98.14
2017-11-03T00:43:15.322Z,98.24
2017-11-03T00:43:43.906Z,98.14
2017-11-03T00:44:12.201Z,98.14
2017-11-03T00:44:40.665Z,98.33
2017-11-03T00:45:09.108Z,98.33
2017-11-03T00:45:37.576Z,98.62
2017-11-03T00:46:05.724Z,98.33
2017-11-03T00:46:33.886Z,98.72
2017-11-03T00:47:02.069Z,99.01
2017-11-03T00:47:30.486Z,99.1
2017-11-03T00:47:59.007Z,99.1
2017-11-03T00:48:27.070Z,99.01
2017-11-03T00:48:55.174Z,99.01
2017-11-03T00:49:23.311Z,99.1
2017-11-03T00:49:51.368Z,99.29
2017-11-03T00:50:19.566Z,99.01
2017-11-03T00:50:47.535Z,99.1
2017-11-03T00:51:15.794Z,99.99
2017-11-03T00:51:43.952Z,99.87
2017-11-03T00:52:12.053Z,99.99
2017-11-03T00:52:40.250Z,99.1
2017-11-03T00:53:08.597Z,99.77
2017-11-03T00:53:36.576Z,99.2
2017-11-03T00:54:04.526Z,99.87
2017-11-03T00:54:32.609Z,99.58
2017-11-03T00:55:00.903Z,99.68
2017-11-03T00:55:28.978Z,99.58
2017-11-03T00:55:57.137Z,99.58
2017-11-03T00:56:25.354Z,99.77
2017-11-03T00:56:53.641Z,99.68
2017-11-03T00:57:22.082Z,99.68
2017-11-03T00:57:50.403Z,99.39
2017-11-03T00:58:19.144Z,99.77
2017-11-03T00:58:47.778Z,99.77
2017-11-03T00:59:16.494Z,99.58
2017-11-03T00:59:44.875Z,99.58
2017-11-03T01:00:13.465Z,99.58
2017-11-03T01:00:41.758Z,99.58
2017-11-03T01:01:10.050Z,99.96
2017-11-03T01:01:38.372Z,99.99
2017-11-03T01:02:06.575Z,99.99
2017-11-03T01:02:34.559Z,99.58
2017-11-03T01:03:02.425Z,99.96
2017-11-03T01:03:30.334Z,99.96
2017-11-03T01:03:58.362Z,99.96
2017-11-03T01:04:26.500Z,99.87
2017-11-03T01:04:54.551Z,99.96
2017-11-03T01:05:22.846Z,99.96
2017-11-03T01:05:50.897Z,99.99
2017-11-03T01:06:18.734Z,99.77
2017-11-03T01:06:46.693Z,99.99
2017-11-03T01:07:14.800Z,99.99
2017-11-03T01:07:42.812Z,99.99
2017-11-03T01:08:10.982Z,99.99
2017-11-03T01:08:39.148Z,99.99
2017-11-03T01:09:07.106Z,99.99
2017-11-03T01:09:35.285Z,99.99
2017-11-03T01:10:03.464Z,99.99
2017-11-03T01:10:31.417Z,99.99
2017-11-03T01:10:59.494Z,99.99
2017-11-03T01:11:27.628Z,99.99
2017-11-03T01:11:55.587Z,99.99
2017-11-03T01:12:23.548Z,99.99
2017-11-03T01:12:51.473Z,99.99
2017-11-03T01:13:19.648Z,99.99
2017-11-03T01:13:47.641Z,99.99
2017-11-03T01:14:15.775Z,99.99
2017-11-03T01:14:43.838Z,99.99
2017-11-03T01:15:11.863Z,99.99
2017-11-03T01:15:39.838Z,99.99
2017-11-03T01:16:07.985Z,99.99
2017-11-03T01:16:36.059Z,99.99
2017-11-03T01:17:04.096Z,99.99
2017-11-03T01:17:32.137Z,99.99
2017-11-03T01:18:00.318Z,99.99
2017-11-03T01:18:28.297Z,99.99
2017-11-03T01:18:56.260Z,99.99
2017-11-03T01:19:24.431Z,99.99
2017-11-03T01:19:52.489Z,99.99
2017-11-03T01:20:20.513Z,99.77
2017-11-03T01:20:48.645Z,99.99
2017-11-03T01:21:16.607Z,99.99
2017-11-03T01:21:44.743Z,99.99
2017-11-03T01:22:12.757Z,99.99
2017-11-03T01:22:40.821Z,99.99
2017-11-03T01:23:08.787Z,99.99
2017-11-03T01:23:36.846Z,99.99
2017-11-03T01:24:04.830Z,99.99
2017-11-03T01:24:32.889Z,99.99
2017-11-03T01:25:00.806Z,99.99
2017-11-03T01:25:28.797Z,99.99
2017-11-03T01:25:56.862Z,99.99
2017-11-03T01:26:24.889Z,99.99
2017-11-03T01:26:53.059Z,99.99
2017-11-03T01:27:21.113Z,99.99
2017-11-03T01:27:49.252Z,99.99
2017-11-03T01:28:17.388Z,99.99
2017-11-03T01:28:45.291Z,99.99
2017-11-03T01:29:13.351Z,99.99
2017-11-03T01:29:41.446Z,99.99
2017-11-03T01:30:09.613Z,99.99
2017-11-03T01:30:37.779Z,99.99
2017-11-03T01:31:05.922Z,99.99
2017-11-03T01:31:34.067Z,99.99
2017-11-03T01:32:02.210Z,99.99
2017-11-03T01:32:30.065Z,99.99
2017-11-03T01:32:58.138Z,99.99
2017-11-03T01:33:26.181Z,99.99
2017-11-03T01:33:54.260Z,99.99
2017-11-03T01:34:22.108Z,99.99
2017-11-03T01:34:50.271Z,99.99
2017-11-03T01:35:18.314Z,99.99
2017-11-03T01:35:46.368Z,99.99
2017-11-03T01:36:14.410Z,99.99
2017-11-03T01:36:42.342Z,99.99
2017-11-03T01:37:10.388Z,99.99
2017-11-03T01:37:38.415Z,99.99
2017-11-03T01:38:06.446Z,99.99
2017-11-03T01:38:34.386Z,99.99
2017-11-03T01:39:02.439Z,99.99
2017-11-03T01:39:30.566Z,99.99
2017-11-03T01:39:58.625Z,99.99
2017-11-03T01:40:26.681Z,99.99
2017-11-03T01:40:54.736Z,99.99
2017-11-03T01:41:22.776Z,99.99
2017-11-03T01:41:51.571Z,99.99
2017-11-03T01:42:19.638Z,99.99
2017-11-03T01:42:47.766Z,99.99
2017-11-03T01:43:15.904Z,99.99
2017-11-03T01:43:44.067Z,99.99
2017-11-03T01:44:12.204Z,99.99
2017-11-03T01:44:40.233Z,99.99
2017-11-03T01:45:08.284Z,99.99
2017-11-03T01:45:36.341Z,99.99
2017-11-03T01:46:04.489Z,99.99
2017-11-03T01:46:32.510Z,99.99
2017-11-03T01:47:00.645Z,99.99
2017-11-03T01:47:28.634Z,99.99
2017-11-03T01:47:56.584Z,99.99
2017-11-03T01:48:24.717Z,99.99
2017-11-03T01:48:52.850Z,99.99
2017-11-03T01:49:20.865Z,99.99
2017-11-03T01:49:49.076Z,99.99
2017-11-03T01:50:17.179Z,99.99
2017-11-03T01:50:45.210Z,99.99
2017-11-03T01:51:13.244Z,99.99
2017-11-03T01:51:41.348Z,99.99
2017-11-03T01:52:09.400Z,99.99
2017-11-03T01:52:37.580Z,99.99
2017-11-03T01:53:05.515Z,99.99
2017-11-03T01:53:33.479Z,99.99
2017-11-03T01:54:01.619Z,99.99
2017-11-03T01:54:29.669Z,99.99
2017-11-03T01:54:57.626Z,99.99
2017-11-03T01:55:25.653Z,99.99
2017-11-03T01:55:53.502Z,99.99
2017-11-03T01:56:21.610Z,99.99
2017-11-03T01:56:49.704Z,99.99
2017-11-03T01:57:17.880Z,99.99
2017-11-03T01:57:46.001Z,99.99
2017-11-03T01:58:14.138Z,99.99
2017-11-03T01:58:42.006Z,99.99
2017-11-03T01:59:10.082Z,99.99
2017-11-03T01:59:38.094Z,99.99
2017-11-03T02:00:06.191Z,99.99
2017-11-03T02:00:34.124Z,99.99
2017-11-03T02:01:02.186Z,99.99
2017-11-03T02:01:30.122Z,99.99
2017-11-03T02:01:58.066Z,99.99
2017-11-03T02:02:26.221Z,99.99
2017-11-03T02:02:54.264Z,99.99
2017-11-03T02:03:22.316Z,99.99
2017-11-03T02:03:50.392Z,99.99
2017-11-03T02:04:18.498Z,99.99
2017-11-03T02:04:46.661Z,99.99
2017-11-03T02:05:14.711Z,99.99
2017-11-03T02:05:42.850Z,99.99
2017-11-03T02:06:11.017Z,99.99
2017-11-03T02:06:38.990Z,99.99
2017-11-03T02:07:06.941Z,99.99
2017-11-03T02:07:34.962Z,99.99
2017-11-03T02:08:02.997Z,99.99
2017-11-03T02:08:31.074Z,99.99
2017-11-03T02:08:58.929Z,99.99
2017-11-03T02:09:26.992Z,99.99
2017-11-03T02:09:55.028Z,99.99
2017-11-03T02:10:22.970Z,99.99
2017-11-03T02:10:51.131Z,99.99
2017-11-03T02:11:19.090Z,99.99
2017-11-03T02:11:46.952Z,99.99
2017-11-03T02:12:14.986Z,99.99
2017-11-03T02:12:42.955Z,99.99
2017-11-03T02:13:10.877Z,99.99
2017-11-03T02:13:39.030Z,99.99
2017-11-03T02:14:07.170Z,99.99
2017-11-03T02:14:35.195Z,99.99
2017-11-03T02:15:03.295Z,99.99
2017-11-03T02:15:31.347Z,99.99
2017-11-03T02:15:59.546Z,99.99
2017-11-03T02:16:27.585Z,99.99
2017-11-03T02:16:55.741Z,99.99
2017-11-03T02:17:23.792Z,99.99
2017-11-03T02:17:51.833Z,99.99
2017-11-03T02:18:19.697Z,99.99
2017-11-03T02:18:47.846Z,99.99
2017-11-03T02:19:16.000Z,99.99
2017-11-03T02:19:44.046Z,99.99
2017-11-03T02:20:12.183Z,99.99
2017-11-03T02:20:40.218Z,99.99
2017-11-03T02:21:08.357Z,99.99
2017-11-03T02:21:36.517Z,99.99
2017-11-03T02:22:04.551Z,99.99
2017-11-03T02:22:32.486Z,99.99
2017-11-03T02:23:00.533Z,99.99
2017-11-03T02:23:28.740Z,99.99
2017-11-03T02:23:56.813Z,99.99
2017-11-03T02:24:24.675Z,99.99
2017-11-03T02:24:52.848Z,99.99
2017-11-03T02:25:20.902Z,99.99
2017-11-03T02:25:48.868Z,99.99
2017-11-03T02:26:16.628Z,99.99
2017-11-03T02:26:44.655Z,99.99
2017-11-03T02:27:12.799Z,99.99
2017-11-03T02:27:40.874Z,99.99
2017-11-03T02:28:09.014Z,99.99
2017-11-03T02:28:36.978Z,99.99
2017-11-03T02:29:05.102Z,99.99
2017-11-03T02:29:33.042Z,99.99
2017-11-03T02:30:01.192Z,99.99
2017-11-03T02:30:29.296Z,99.99
2017-11-03T02:30:57.364Z,99.99
2017-11-03T02:31:25.275Z,99.99
2017-11-03T02:31:53.396Z,99.99
2017-11-03T02:32:21.426Z,99.99
2017-11-03T02:32:49.587Z,99.99
2017-11-03T02:33:17.717Z,99.99
2017-11-03T02:33:45.747Z,99.99
2017-11-03T02:34:13.570Z,99.99
2017-11-03T02:34:41.620Z,99.99
2017-11-03T02:35:09.437Z,99.99
2017-11-03T02:35:37.472Z,99.99
2017-11-03T02:36:05.516Z,99.99
2017-11-03T02:36:33.485Z,99.99
2017-11-03T02:37:01.639Z,99.99
2017-11-03T02:37:29.780Z,99.99
2017-11-03T02:37:57.842Z,99.99
2017-11-03T02:38:25.694Z,99.99
2017-11-03T02:38:53.748Z,99.99
2017-11-03T02:39:21.795Z,99.99
2017-11-03T02:39:49.882Z,99.99
2017-11-03T02:40:17.925Z,99.99
2017-11-03T02:40:45.972Z,99.99
2017-11-03T02:41:14.126Z,99.99
2017-11-03T02:41:42.148Z,99.99
2017-11-03T02:42:10.240Z,99.99
2017-11-03T02:42:38.180Z,99.99
2017-11-03T02:43:06.305Z,99.99
2017-11-03T02:43:34.439Z,99.99
2017-11-03T02:44:02.606Z,99.99
2017-11-03T02:44:30.796Z,99.99
2017-11-03T02:44:58.955Z,99.99
2017-11-03T02:45:27.025Z,99.99
2017-11-03T02:45:55.060Z,99.99
2017-11-03T02:46:23.002Z,99.99
2017-11-03T02:46:50.965Z,99.99
2017-11-03T02:47:19.004Z,99.99
2017-11-03T02:47:47.142Z,99.99
2017-11-03T02:48:15.287Z,99.99
2017-11-03T02:48:43.457Z,99.99
2017-11-03T02:49:11.626Z,99.99
2017-11-03T02:49:39.690Z,99.99
2017-11-03T02:50:07.748Z,99.99
2017-11-03T02:50:36.603Z,99.99
2017-11-03T02:51:04.683Z,99.99
2017-11-03T02:51:32.623Z,99.99
2017-11-03T02:52:00.672Z,99.99
2017-11-03T02:52:28.701Z,99.99
2017-11-03T02:52:56.759Z,99.99
2017-11-03T02:53:24.724Z,99.99
2017-11-03T02:53:52.687Z,99.99
2017-11-03T02:54:20.739Z,99.99
2017-11-03T02:54:48.677Z,99.99
2017-11-03T02:55:16.636Z,99.99
2017-11-03T02:55:44.668Z,99.99
2017-11-03T02:56:12.716Z,99.99
2017-11-03T02:56:40.668Z,99.99
2017-11-03T02:57:08.712Z,99.99
2017-11-03T02:57:36.756Z,99.99
2017-11-03T02:58:05.276Z,99.99
2017-11-03T02:58:33.651Z,99.99
2017-11-03T02:59:02.366Z,99.99
2017-11-03T02:59:30.728Z,99.99
2017-11-03T02:59:58.876Z,99.99
2017-11-03T03:00:26.833Z,99.99
2017-11-03T03:00:54.963Z,99.99
2017-11-03T03:01:23.108Z,99.99
2017-11-03T03:01:51.081Z,99.99
2017-11-03T03:02:19.230Z,99.99
2017-11-03T03:02:47.241Z,99.99
2017-11-03T03:03:15.263Z,99.99
2017-11-03T03:03:43.418Z,99.99
2017-11-03T03:04:11.543Z,99.99
2017-11-03T03:04:39.476Z,99.99
2017-11-03T03:05:07.619Z,99.99
2017-11-03T03:05:35.601Z,99.99
2017-11-03T03:06:03.653Z,99.99
2017-11-03T03:06:31.701Z,99.99
2017-11-03T03:06:59.756Z,99.99
2017-11-03T03:07:27.814Z,99.99
2017-11-03T03:07:55.858Z,99.99
2017-11-03T03:08:23.987Z,99.99
2017-11-03T03:08:51.961Z,99.99
2017-11-03T03:09:19.895Z,99.99
2017-11-03T03:09:47.896Z,99.99
2017-11-03T03:10:15.943Z,99.99
2017-11-03T03:10:44.091Z,99.99
2017-11-03T03:11:12.048Z,99.99
2017-11-03T03:11:40.071Z,99.99
2017-11-03T03:12:08.055Z,99.99
2017-11-03T03:12:35.992Z,99.99
2017-11-03T03:13:04.021Z,99.99
2017-11-03T03:13:32.165Z,99.99
2017-11-03T03:14:00.227Z,99.99
2017-11-03T03:14:28.171Z,99.99
2017-11-03T03:14:56.212Z,99.99
2017-11-03T03:15:24.436Z,99.99
2017-11-03T03:15:52.568Z,99.99
2017-11-03T03:16:20.824Z,99.99
2017-11-03T03:16:48.794Z,99.99
2017-11-03T03:17:16.642Z,99.99
2017-11-03T03:17:44.514Z,99.99
2017-11-03T03:18:13.433Z,99.99
2017-11-03T03:18:41.281Z,99.99
2017-11-03T03:19:09.429Z,99.99
2017-11-03T03:19:37.487Z,99.99
2017-11-03T03:20:05.525Z,99.99
2017-11-03T03:20:33.584Z,99.99
2017-11-03T03:21:01.550Z,99.99
2017-11-03T03:21:29.411Z,99.99
2017-11-03T03:21:57.540Z,99.99
2017-11-03T03:22:25.482Z,99.99
2017-11-03T03:22:53.544Z,99.99
2017-11-03T03:23:21.493Z,99.99
2017-11-03T03:23:49.655Z,99.99
2017-11-03T03:24:17.843Z,99.99
2017-11-03T03:24:45.912Z,99.99
2017-11-03T03:25:14.036Z,99.99
2017-11-03T03:25:42.090Z,99.99
2017-11-03T03:26:10.177Z,99.99
2017-11-03T03:26:38.214Z,99.99
2017-11-03T03:27:06.251Z,99.99
2017-11-03T03:27:34.287Z,99.99
2017-11-03T03:28:02.460Z,99.99
2017-11-03T03:28:30.501Z,99.99
2017-11-03T03:28:58.649Z,99.99
2017-11-03T03:29:26.492Z,99.99
2017-11-03T03:29:54.645Z,99.99
2017-11-03T03:30:22.706Z,99.99
2017-11-03T03:30:50.795Z,99.99
2017-11-03T03:31:18.937Z,99.99
2017-11-03T03:31:47.043Z,99.99
2017-11-03T03:32:15.110Z,99.99
2017-11-03T03:32:43.045Z,99.99
2017-11-03T03:33:11.178Z,99.99
2017-11-03T03:33:39.223Z,99.99
2017-11-03T03:34:07.367Z,99.99
2017-11-03T03:34:35.220Z,99.99
2017-11-03T03:35:03.663Z,99.99
2017-11-03T03:35:32.417Z,99.99
2017-11-03T03:36:00.774Z,99.99
2017-11-03T03:36:29.308Z,99.99
2017-11-03T03:36:58.045Z,99.99
2017-11-03T03:37:26.419Z,99.99
2017-11-03T03:37:54.950Z,99.99
2017-11-03T03:38:23.341Z,99.99
2017-11-03T03:38:51.369Z,99.99
2017-11-03T03:39:19.387Z,99.99
2017-11-03T03:39:47.318Z,99.99
2017-11-03T03:40:15.343Z,99.99
2017-11-03T03:40:43.479Z,99.99
2017-11-03T03:41:11.513Z,99.99
2017-11-03T03:41:39.574Z,99.99
2017-11-03T03:42:07.611Z,99.99
2017-11-03T03:42:35.490Z,99.99
2017-11-03T03:43:03.737Z,99.99
2017-11-03T03:43:32.028Z,99.99
2017-11-03T03:44:00.433Z,99.99
2017-11-03T03:44:28.672Z,99.99
2017-11-03T03:44:56.844Z,99.99
2017-11-03T03:45:24.897Z,99.99
2017-11-03T03:45:52.753Z,99.99
2017-11-03T03:46:20.762Z,99.99
2017-11-03T03:46:48.713Z,99.99
2017-11-03T03:47:16.648Z,99.99
2017-11-03T03:47:44.816Z,99.99
2017-11-03T03:48:12.803Z,99.99
2017-11-03T03:48:40.955Z,99.99
2017-11-03T03:49:08.885Z,99.99
2017-11-03T03:49:36.942Z,99.99
2017-11-03T03:50:04.986Z,99.99
2017-11-03T03:50:33.050Z,99.99
2017-11-03T03:51:01.220Z,99.99
2017-11-03T03:51:29.310Z,99.99
2017-11-03T03:51:57.267Z,99.99
2017-11-03T03:52:25.387Z,99.99
2017-11-03T03:52:53.822Z,99.99
2017-11-03T03:53:22.322Z,99.99
2017-11-03T03:53:50.393Z,99.99
2017-11-03T03:54:18.220Z,99.99
2017-11-03T03:54:46.314Z,99.99
2017-11-03T03:55:14.256Z,99.99
2017-11-03T03:55:42.465Z,99.99
2017-11-03T03:56:10.643Z,99.99
2017-11-03T03:56:38.783Z,99.99
2017-11-03T03:57:06.861Z,99.99
2017-11-03T03:57:34.806Z,99.99
2017-11-03T03:58:02.872Z,99.99
2017-11-03T03:58:30.878Z,99.99
2017-11-03T03:58:58.898Z,99.99
2017-11-03T03:59:27.198Z,99.99
2017-11-03T03:59:55.336Z,99.99
2017-11-03T04:00:23.398Z,99.99
2017-11-03T04:00:51.416Z,99.99
2017-11-03T04:01:19.604Z,99.99
2017-11-03T04:01:47.657Z,99.99
2017-11-03T04:02:15.613Z,99.99
2017-11-03T04:02:43.643Z,99.99
2017-11-03T04:03:11.820Z,99.99
2017-11-03T04:03:39.885Z,99.99
2017-11-03T04:04:07.810Z,99.99
2017-11-03T04:04:35.872Z,99.99
2017-11-03T04:05:03.912Z,99.99
2017-11-03T04:05:32.299Z,99.99
2017-11-03T04:06:00.480Z,99.99
2017-11-03T04:06:28.579Z,99.99
2017-11-03T04:06:56.318Z,99.99
2017-11-03T04:07:24.241Z,99.99
2017-11-03T04:07:52.417Z,99.99
2017-11-03T04:08:20.475Z,99.99
2017-11-03T04:08:48.564Z,99.99
2017-11-03T04:09:16.402Z,99.99
2017-11-03T04:09:44.449Z,99.99
2017-11-03T04:10:12.481Z,99.99
2017-11-03T04:10:40.438Z,99.99
2017-11-03T04:11:08.483Z,99.99
2017-11-03T04:11:36.620Z,99.99
2017-11-03T04:12:04.767Z,99.99
2017-11-03T04:12:32.801Z,99.99
2017-11-03T04:13:00.959Z,99.99
2017-11-03T04:13:29.118Z,99.99
2017-11-03T04:13:57.156Z,99.99
2017-11-03T04:14:25.326Z,99.99
2017-11-03T04:14:53.413Z,99.99
2017-11-03T04:15:21.455Z,99.99
2017-11-03T04:15:49.585Z,99.99
2017-11-03T04:16:17.754Z,99.99
2017-11-03T04:16:45.712Z,99.99
2017-11-03T04:17:13.786Z,99.99
2017-11-03T04:17:41.938Z,99.99
2017-11-03T04:18:09.879Z,99.99
2017-11-03T04:18:37.840Z,99.99
2017-11-03T04:19:05.787Z,99.99
2017-11-03T04:19:33.749Z,99.99
2017-11-03T04:20:01.806Z,99.99
2017-11-03T04:20:29.962Z,99.99
2017-11-03T04:20:57.932Z,99.99
2017-11-03T04:21:26.101Z,99.99
2017-11-03T04:21:54.339Z,99.99
2017-11-03T04:22:22.509Z,99.99
2017-11-03T04:22:50.657Z,99.99
2017-11-03T04:23:18.742Z,99.99
2017-11-03T04:23:46.700Z,99.99
2017-11-03T04:24:14.844Z,99.99
2017-11-03T04:24:42.807Z,99.99
2017-11-03T04:25:11.079Z,99.99
2017-11-03T04:25:39.158Z,99.99
2017-11-03T04:26:07.233Z,99.99
2017-11-03T04:26:35.373Z,99.99
2017-11-03T04:27:03.532Z,99.99
2017-11-03T04:27:31.565Z,99.99
2017-11-03T04:27:59.556Z,99.99
2017-11-03T04:28:27.614Z,99.99
2017-11-03T04:28:55.664Z,99.99
2017-11-03T04:29:23.809Z,99.99
2017-11-03T04:29:52.009Z,99.99
2017-11-03T04:30:20.095Z,99.99
2017-11-03T04:30:48.220Z,99.99
2017-11-03T04:31:16.356Z,99.99
2017-11-03T04:31:44.596Z,99.99
2017-11-03T04:32:12.687Z,99.99
2017-11-03T04:32:40.908Z,99.99
2017-11-03T04:33:09.022Z,99.99
2017-11-03T04:33:36.992Z,99.99
2017-11-03T04:34:05.038Z,99.99
2017-11-03T04:34:33.011Z,99.99
2017-11-03T04:35:01.179Z,99.99
2017-11-03T04:35:29.349Z,99.99
2017-11-03T04:35:57.581Z,99.99
2017-11-03T04:36:25.630Z,99.99
2017-11-03T04:36:53.594Z,99.99
2017-11-03T04:37:21.654Z,99.99
2017-11-03T04:37:49.588Z,99.99
2017-11-03T04:38:17.631Z,99.99
2017-11-03T04:38:45.760Z,99.99
2017-11-03T04:39:14.196Z,99.99
2017-11-03T04:39:42.668Z,99.99
2017-11-03T04:40:11.291Z,99.99
2017-11-03T04:40:39.245Z,99.99
2017-11-03T04:41:07.315Z,99.99
2017-11-03T04:41:35.485Z,99.99
2017-11-03T04:42:03.450Z,99.99
2017-11-03T04:42:31.514Z,99.99
2017-11-03T04:42:59.446Z,99.99
2017-11-03T04:43:27.616Z,99.99
2017-11-03T04:43:55.657Z,99.99
2017-11-03T04:44:23.533Z,99.99
2017-11-03T04:44:51.489Z,99.99
2017-11-03T04:45:19.433Z,99.99
2017-11-03T04:45:47.564Z,99.99
2017-11-03T04:46:15.844Z,99.99
2017-11-03T04:46:44.034Z,99.99
2017-11-03T04:47:11.997Z,99.99
2017-11-03T04:47:40.173Z,99.99
2017-11-03T04:48:08.127Z,99.99
2017-11-03T04:48:36.266Z,99.99
2017-11-03T04:49:04.129Z,99.99
2017-11-03T04:49:32.175Z,99.99
2017-11-03T04:50:00.265Z,99.99
2017-11-03T04:50:28.302Z,99.99
2017-11-03T04:50:56.236Z,99.99
2017-11-03T04:51:24.282Z,99.99
2017-11-03T04:51:52.233Z,99.99
2017-11-03T04:52:20.258Z,99.99
2017-11-03T04:52:48.426Z,99.99
2017-11-03T04:53:16.384Z,99.99
2017-11-03T04:53:44.439Z,99.99
2017-11-03T04:54:12.431Z,99.99
2017-11-03T04:54:40.397Z,99.99
2017-11-03T04:55:08.443Z,99.99
2017-11-03T04:55:36.321Z,99.99
2017-11-03T04:56:04.811Z,99.99
2017-11-03T04:56:33.026Z,99.99
2017-11-03T04:57:01.248Z,99.99
2017-11-03T04:57:29.756Z,99.99
2017-11-03T04:57:57.972Z,99.99
2017-11-03T04:58:26.196Z,99.99
2017-11-03T04:58:54.922Z,99.99
2017-11-03T04:59:22.930Z,99.99
2017-11-03T04:59:50.976Z,99.99
2017-11-03T05:00:19.087Z,99.99
2017-11-03T05:00:47.100Z,99.99
2017-11-03T05:01:15.269Z,99.99
2017-11-03T05:01:43.327Z,99.99
2017-11-03T05:02:11.194Z,99.99
2017-11-03T05:02:39.235Z,99.99
2017-11-03T05:03:07.286Z,99.99
2017-11-03T05:03:35.232Z,99.99
2017-11-03T05:04:03.169Z,99.99
2017-11-03T05:04:31.249Z,99.99
2017-11-03T05:04:59.388Z,99.99
2017-11-03T05:05:27.432Z,99.99
2017-11-03T05:05:55.568Z,99.99
2017-11-03T05:06:23.687Z,99.99
2017-11-03T05:06:51.726Z,99.99
2017-11-03T05:07:19.767Z,99.99
2017-11-03T05:07:47.627Z,99.99
2017-11-03T05:08:15.665Z,99.99
2017-11-03T05:08:43.800Z,99.99
2017-11-03T05:09:11.918Z,99.99
2017-11-03T05:09:39.982Z,99.99
2017-11-03T05:10:08.035Z,99.99
2017-11-03T05:10:36.006Z,99.99
2017-11-03T05:11:04.153Z,99.99
2017-11-03T05:11:32.300Z,99.99
2017-11-03T05:12:00.258Z,99.99
2017-11-03T05:12:28.425Z,99.99
2017-11-03T05:12:56.501Z,99.99
2017-11-03T05:13:24.434Z,99.99
2017-11-03T05:13:52.474Z,99.99
2017-11-03T05:14:20.520Z,99.99
2017-11-03T05:14:48.579Z,99.99
2017-11-03T05:15:16.725Z,99.99
2017-11-03T05:15:44.883Z,99.99
2017-11-03T05:16:13.033Z,99.99
2017-11-03T05:16:40.974Z,99.99
2017-11-03T05:17:08.996Z,99.99
2017-11-03T05:17:37.167Z,99.99
2017-11-03T05:18:05.217Z,99.99
2017-11-03T05:18:33.343Z,99.99
2017-11-03T05:19:01.323Z,99.99
2017-11-03T05:19:29.159Z,99.99
2017-11-03T05:19:57.092Z,99.99
2017-11-03T05:20:25.167Z,99.99
2017-11-03T05:20:53.212Z,99.99
2017-11-03T05:21:21.266Z,99.99
2017-11-03T05:21:49.401Z,99.99
2017-11-03T05:22:17.467Z,99.99
2017-11-03T05:22:45.441Z,99.99
2017-11-03T05:23:13.578Z,99.99
2017-11-03T05:23:41.735Z,99.99
2017-11-03T05:24:09.779Z,99.99
2017-11-03T05:24:37.808Z,99.99
2017-11-03T05:25:05.947Z,99.99
2017-11-03T05:25:33.982Z,99.99
2017-11-03T05:26:02.015Z,99.99
2017-11-03T05:26:30.091Z,99.99
2017-11-03T05:26:58.042Z,99.99
2017-11-03T05:27:26.080Z,99.99
2017-11-03T05:27:54.128Z,99.99
2017-11-03T05:28:22.267Z,99.99
2017-11-03T05:28:50.216Z,99.99
2017-11-03T05:29:18.067Z,99.99
2017-11-03T05:29:46.212Z,99.99
2017-11-03T05:30:14.356Z,99.99
2017-11-03T05:30:42.510Z,99.99
2017-11-03T05:31:10.471Z,99.99
2017-11-03T05:31:38.502Z,99.99
2017-11-03T05:32:06.637Z,99.99
2017-11-03T05:32:34.666Z,99.99
2017-11-03T05:33:02.699Z,99.99
2017-11-03T05:33:30.752Z,99.99
2017-11-03T05:33:58.720Z,99.99
2017-11-03T05:34:26.852Z,99.99
2017-11-03T05:34:55.012Z,99.99
2017-11-03T05:35:22.957Z,99.99
2017-11-03T05:35:50.991Z,99.99
2017-11-03T05:36:19.136Z,99.99
2017-11-03T05:36:47.105Z,99.99
2017-11-03T05:37:15.144Z,99.99
2017-11-03T05:37:43.192Z,99.99
2017-11-03T05:38:11.223Z,99.99
2017-11-03T05:38:39.396Z,99.99
2017-11-03T05:39:07.538Z,99.99
2017-11-03T05:39:35.464Z,99.99
2017-11-03T05:40:03.556Z,99.99
2017-11-03T05:40:31.496Z,99.99
2017-11-03T05:40:59.622Z,99.99
2017-11-03T05:41:27.772Z,99.99
2017-11-03T05:41:55.801Z,99.99
2017-11-03T05:42:23.740Z,99.99
2017-11-03T05:42:51.783Z,99.99
2017-11-03T05:43:19.822Z,99.99
2017-11-03T05:43:47.769Z,99.99
2017-11-03T05:44:15.789Z,99.99
2017-11-03T05:44:43.834Z,99.99
2017-11-03T05:45:11.741Z,99.99
2017-11-03T05:45:39.871Z,99.99
2017-11-03T05:46:07.913Z,99.99
2017-11-03T05:46:36.132Z,99.99
2017-11-03T05:47:04.286Z,99.99
2017-11-03T05:47:32.345Z,99.99
2017-11-03T05:48:00.281Z,99.99
2017-11-03T05:48:28.320Z,99.99
2017-11-03T05:48:56.413Z,99.99
2017-11-03T05:49:24.543Z,99.99
2017-11-03T05:49:52.592Z,99.99
2017-11-03T05:50:20.719Z,99.99
2017-11-03T05:50:48.797Z,99.99
2017-11-03T05:51:16.946Z,99.99
2017-11-03T05:51:44.976Z,99.99
2017-11-03T05:52:13.109Z,99.99
2017-11-03T05:52:41.128Z,99.99
2017-11-03T05:53:09.128Z,99.99
2017-11-03T05:53:37.033Z,99.99
2017-11-03T05:54:05.147Z,99.99
2017-11-03T05:54:33.204Z,99.99
2017-11-03T05:55:01.366Z,99.99
2017-11-03T05:55:29.389Z,99.99
2017-11-03T05:55:57.451Z,99.99
2017-11-03T05:56:25.464Z,99.99
2017-11-03T05:56:53.509Z,99.99
2017-11-03T05:57:21.537Z,99.99
2017-11-03T05:57:49.371Z,99.99
2017-11-03T05:58:17.433Z,99.99
2017-11-03T05:58:45.537Z,99.99
2017-11-03T05:59:13.682Z,99.99
2017-11-03T05:59:41.702Z,99.99
2017-11-03T06:00:09.738Z,99.99
2017-11-03T06:00:37.738Z,99.99
2017-11-03T06:01:05.864Z,99.99
2017-11-03T06:01:33.700Z,99.99
2017-11-03T06:02:01.741Z,99.99